Time,TemperatureF,DewpointF,PressureIn,WindDirection,WindDirectionDegrees,WindSpeedMPH,WindSpeedGustMPH,Humidity,HourlyPrecipIn,Conditions,Clouds,dailyrainin,SoftwareType,DateUTC
2013-12-22 00:02:00,43.9,29.3,30.30,NNE,22,0.0,1.3,56,0.00,,,0.00,meteobridge,2013-12-21 22:02:00,
2013-12-22 00:07:00,43.9,29.3,30.30,NNE,22,1.3,1.6,56,0.00,,,0.00,meteobridge,2013-12-21 22:07:00,
2013-12-22 00:12:00,43.7,29.1,30.30,NNE,22,0.0,1.3,56,0.00,,,0.00,meteobridge,2013-12-21 22:12:00,
2013-12-22 00:17:00,43.5,28.4,30.30,NNE,22,1.3,2.2,55,0.00,,,0.00,meteobridge,2013-12-21 22:17:00,
2013-12-22 00:23:00,43.5,28.4,30.30,NNE,22,0.0,0.0,55,0.00,,,0.00,meteobridge,2013-12-21 22:23:00,
2013-12-22 00:28:00,43.5,28.9,30.30,NNE,22,0.9,2.0,56,0.00,,,0.00,meteobridge,2013-12-21 22:28:00,
2013-12-22 00:33:00,43.3,28.2,30.30,NNE,22,0.0,0.0,55,0.00,,,0.00,meteobridge,2013-12-21 22:33:00,
2013-12-22 00:38:00,43.2,28.0,30.30,NNE,22,0.0,0.0,55,0.00,,,0.00,meteobridge,2013-12-21 22:38:00,
2013-12-22 00:43:00,42.8,27.3,30.30,NNE,22,0.0,0.0,54,0.00,,,0.00,meteobridge,2013-12-21 22:43:00,
2013-12-22 00:48:00,42.4,27.5,30.30,NNE,22,0.0,0.0,55,0.00,,,0.00,meteobridge,2013-12-21 22:48:00,
2013-12-22 00:53:00,42.8,27.9,30.30,NNE,22,0.9,2.0,55,0.00,,,0.00,meteobridge,2013-12-21 22:53:00,
2013-12-22 00:59:00,43.0,28.0,30.30,NNE,22,1.1,1.6,55,0.00,,,0.00,meteobridge,2013-12-21 22:59:00,
2013-12-22 01:06:00,43.2,27.7,30.30,NNE,22,0.0,1.1,54,0.00,,,0.00,meteobridge,2013-12-21 23:06:00,
2013-12-22 01:12:00,43.0,27.5,30.30,NNE,22,1.1,1.1,54,0.00,,,0.00,meteobridge,2013-12-21 23:12:00,
2013-12-22 01:17:00,42.8,27.3,30.30,NNE,22,0.0,0.0,54,0.00,,,0.00,meteobridge,2013-12-21 23:17:00,
2013-12-22 01:22:00,42.6,27.1,30.30,NNE,22,0.0,0.0,54,0.00,,,0.00,meteobridge,2013-12-21 23:22:00,
2013-12-22 01:27:00,42.4,27.0,30.30,NNE,22,0.0,0.9,54,0.00,,,0.00,meteobridge,2013-12-21 23:27:00,
2013-12-22 01:32:00,42.3,26.8,30.30,NNE,22,0.0,0.0,54,0.00,,,0.00,meteobridge,2013-12-21 23:32:00,
2013-12-22 01:38:00,42.1,26.6,30.30,NNE,22,0.0,0.0,54,0.00,,,0.00,meteobridge,2013-12-21 23:38:00,
2013-12-22 01:43:00,41.7,26.4,30.30,NNE,22,0.0,0.0,54,0.00,,,0.00,meteobridge,2013-12-21 23:43:00,
2013-12-22 01:48:00,41.7,26.4,30.30,NNE,22,0.9,1.3,54,0.00,,,0.00,meteobridge,2013-12-21 23:48:00,
2013-12-22 01:53:00,41.7,26.4,30.30,NNE,22,0.0,0.0,54,0.00,,,0.00,meteobridge,2013-12-21 23:53:00,
2013-12-22 01:58:00,41.5,26.2,30.30,NNE,22,0.0,1.3,54,0.00,,,0.00,meteobridge,2013-12-21 23:58:00,
2013-12-22 02:03:00,41.4,26.1,30.30,NNE,22,0.0,0.0,54,0.00,,,0.00,meteobridge,2013-12-22 00:03:00,
2013-12-22 02:08:00,41.2,25.9,30.30,NE,45,0.0,0.0,54,0.00,,,0.00,meteobridge,2013-12-22 00:08:00,
2013-12-22 02:14:00,41.2,25.9,30.30,NE,45,0.0,0.0,54,0.00,,,0.00,meteobridge,2013-12-22 00:14:00,
2013-12-22 02:19:00,41.2,25.9,30.30,NE,45,1.6,1.6,54,0.00,,,0.00,meteobridge,2013-12-22 00:19:00,
2013-12-22 02:24:00,41.2,25.9,30.30,NE,45,0.0,0.0,54,0.00,,,0.00,meteobridge,2013-12-22 00:24:00,
2013-12-22 02:29:00,41.2,25.9,30.30,NE,45,0.0,0.0,54,0.00,,,0.00,meteobridge,2013-12-22 00:29:00,
2013-12-22 02:34:00,41.4,26.1,30.30,ENE,68,0.0,2.0,54,0.00,,,0.00,meteobridge,2013-12-22 00:34:00,
2013-12-22 02:39:00,41.4,26.1,30.30,ENE,68,0.0,0.0,54,0.00,,,0.00,meteobridge,2013-12-22 00:39:00,
2013-12-22 02:44:00,41.0,25.2,30.30,ENE,68,0.0,0.0,53,0.00,,,0.00,meteobridge,2013-12-22 00:44:00,
2013-12-22 02:49:00,40.8,25.0,30.30,ENE,68,0.0,0.0,53,0.00,,,0.00,meteobridge,2013-12-22 00:49:00,
2013-12-22 02:54:00,40.8,25.5,30.30,ENE,68,0.0,0.0,54,0.00,,,0.00,meteobridge,2013-12-22 00:54:00,
2013-12-22 03:00:00,40.6,25.3,30.30,ENE,68,0.0,0.0,54,0.00,,,0.00,meteobridge,2013-12-22 01:00:00,
2013-12-22 03:05:00,40.5,24.8,30.30,ENE,68,0.0,0.0,53,0.00,,,0.00,meteobridge,2013-12-22 01:05:00,
2013-12-22 03:11:00,40.5,25.2,30.30,ENE,68,0.0,0.0,54,0.00,,,0.00,meteobridge,2013-12-22 01:11:00,
2013-12-22 03:16:00,40.3,24.6,30.30,ENE,68,0.0,0.0,53,0.00,,,0.00,meteobridge,2013-12-22 01:16:00,
2013-12-22 03:21:00,40.6,25.3,30.30,ENE,68,0.0,0.0,54,0.00,,,0.00,meteobridge,2013-12-22 01:21:00,
2013-12-22 03:26:00,40.5,24.8,30.30,ENE,68,0.0,0.0,53,0.00,,,0.00,meteobridge,2013-12-22 01:26:00,
2013-12-22 03:31:00,40.5,24.8,30.30,ENE,68,0.0,0.0,53,0.00,,,0.00,meteobridge,2013-12-22 01:31:00,
2013-12-22 03:36:00,40.5,24.8,30.30,ENE,68,0.0,0.0,53,0.00,,,0.00,meteobridge,2013-12-22 01:36:00,
2013-12-22 03:41:00,40.3,24.1,30.30,ENE,68,0.0,0.0,52,0.00,,,0.00,meteobridge,2013-12-22 01:41:00,
2013-12-22 03:46:00,40.1,23.9,30.30,ENE,68,0.0,0.0,52,0.00,,,0.00,meteobridge,2013-12-22 01:46:00,
2013-12-22 03:51:00,39.9,23.7,30.30,ENE,68,0.0,0.0,52,0.00,,,0.00,meteobridge,2013-12-22 01:51:00,
2013-12-22 03:56:00,39.9,23.7,30.30,ENE,68,1.6,2.2,52,0.00,,,0.00,meteobridge,2013-12-22 01:56:00,
2013-12-22 04:01:00,40.1,23.9,30.30,ENE,68,0.0,0.0,52,0.00,,,0.00,meteobridge,2013-12-22 02:01:00,
2013-12-22 04:06:00,40.3,24.1,30.30,NE,45,2.0,3.4,52,0.00,,,0.00,meteobridge,2013-12-22 02:06:00,
2013-12-22 04:12:00,40.6,23.9,30.30,NE,45,1.6,2.5,51,0.00,,,0.00,meteobridge,2013-12-22 02:12:00,
2013-12-22 04:17:00,40.6,23.0,30.30,NE,45,1.1,3.4,49,0.00,,,0.00,meteobridge,2013-12-22 02:17:00,
2013-12-22 04:22:00,40.8,23.2,30.30,NE,45,0.0,0.0,49,0.00,,,0.00,meteobridge,2013-12-22 02:22:00,
2013-12-22 04:27:00,40.5,22.3,30.30,NE,45,0.0,0.0,48,0.00,,,0.00,meteobridge,2013-12-22 02:27:00,
2013-12-22 04:32:00,40.1,21.6,30.30,NE,45,0.0,0.0,47,0.00,,,0.00,meteobridge,2013-12-22 02:32:00,
2013-12-22 04:38:00,39.9,21.4,30.30,NE,45,0.0,0.0,47,0.00,,,0.00,meteobridge,2013-12-22 02:38:00,
2013-12-22 04:43:00,39.9,21.9,30.30,NE,45,0.0,0.0,48,0.00,,,0.00,meteobridge,2013-12-22 02:43:00,
2013-12-22 04:48:00,39.9,21.9,30.30,NE,45,2.0,2.2,48,0.00,,,0.00,meteobridge,2013-12-22 02:48:00,
2013-12-22 04:53:00,40.3,21.7,30.30,NNE,22,1.1,3.1,47,0.00,,,0.00,meteobridge,2013-12-22 02:53:00,
2013-12-22 04:58:00,40.1,21.0,30.30,NNE,22,0.0,2.0,46,0.00,,,0.00,meteobridge,2013-12-22 02:58:00,
2013-12-22 05:04:00,39.7,20.1,30.30,NNE,22,0.0,0.0,45,0.00,,,0.00,meteobridge,2013-12-22 03:04:00,
2013-12-22 05:09:00,39.6,19.9,30.30,NNE,22,0.0,0.0,45,0.00,,,0.00,meteobridge,2013-12-22 03:09:00,
2013-12-22 05:14:00,39.4,19.9,30.30,NNE,22,0.0,0.0,45,0.00,,,0.00,meteobridge,2013-12-22 03:14:00,
2013-12-22 05:19:00,39.2,20.1,30.30,NNE,22,0.0,0.0,46,0.00,,,0.00,meteobridge,2013-12-22 03:19:00,
2013-12-22 05:24:00,39.2,20.1,30.30,NNE,22,0.9,1.3,46,0.00,,,0.00,meteobridge,2013-12-22 03:24:00,
2013-12-22 05:29:00,39.4,20.3,30.30,NNE,22,0.0,0.0,46,0.00,,,0.00,meteobridge,2013-12-22 03:29:00,
2013-12-22 05:34:00,39.4,20.3,30.30,NNE,22,0.0,1.3,46,0.00,,,0.00,meteobridge,2013-12-22 03:34:00,
2013-12-22 05:40:00,39.4,20.3,30.33,NNE,22,1.1,1.1,46,0.00,,,0.00,meteobridge,2013-12-22 03:40:00,
2013-12-22 05:45:00,39.6,20.5,30.33,NNE,22,0.0,0.0,46,0.00,,,0.00,meteobridge,2013-12-22 03:45:00,
2013-12-22 05:50:00,39.4,19.9,30.33,NNE,22,0.0,1.3,45,0.00,,,0.00,meteobridge,2013-12-22 03:50:00,
2013-12-22 05:55:00,39.4,19.9,30.30,NNE,22,0.0,0.0,45,0.00,,,0.00,meteobridge,2013-12-22 03:55:00,
2013-12-22 06:00:00,39.2,19.8,30.30,NNE,22,0.0,0.0,45,0.00,,,0.00,meteobridge,2013-12-22 04:00:00,
2013-12-22 06:05:00,39.0,20.1,30.30,NNE,22,0.0,0.0,46,0.00,,,0.00,meteobridge,2013-12-22 04:05:00,
2013-12-22 06:10:00,38.8,19.9,30.30,NE,45,0.0,0.0,46,0.00,,,0.00,meteobridge,2013-12-22 04:10:00,
2013-12-22 06:15:00,39.0,20.5,30.30,NE,45,0.0,0.0,47,0.00,,,0.00,meteobridge,2013-12-22 04:15:00,
2013-12-22 06:20:00,39.0,20.5,30.30,NE,45,0.0,0.0,47,0.00,,,0.00,meteobridge,2013-12-22 04:20:00,
2013-12-22 06:25:00,39.2,20.7,30.30,NE,45,0.0,0.0,47,0.00,,,0.00,meteobridge,2013-12-22 04:25:00,
2013-12-22 06:30:00,39.2,20.7,30.30,NE,45,0.0,0.0,47,0.00,,,0.00,meteobridge,2013-12-22 04:30:00,
2013-12-22 06:35:00,39.0,20.5,30.30,NE,45,0.0,1.6,47,0.00,,,0.00,meteobridge,2013-12-22 04:35:00,
2013-12-22 06:41:00,38.8,20.3,30.30,NE,45,0.0,0.0,47,0.00,,,0.00,meteobridge,2013-12-22 04:41:00,
2013-12-22 06:46:00,38.7,20.3,30.30,NE,45,0.0,0.0,47,0.00,,,0.00,meteobridge,2013-12-22 04:46:00,
2013-12-22 06:51:00,38.7,20.3,30.30,NE,45,0.0,0.0,47,0.00,,,0.00,meteobridge,2013-12-22 04:51:00,
2013-12-22 06:56:00,38.7,20.7,30.30,NE,45,0.0,0.0,48,0.00,,,0.00,meteobridge,2013-12-22 04:56:00,
2013-12-22 07:01:00,38.8,20.8,30.30,NE,45,0.0,1.3,48,0.00,,,0.00,meteobridge,2013-12-22 05:01:00,
2013-12-22 07:02:00,38.8,20.8,30.30,NE,45,0.0,1.3,48,0.00,,,0.00,meteobridge,2013-12-22 05:02:00,
2013-12-22 07:03:00,39.0,21.0,30.30,NE,45,0.0,0.9,48,0.00,,,0.00,meteobridge,2013-12-22 05:03:00,
2013-12-22 07:05:00,39.0,21.0,30.30,NE,45,0.0,0.0,48,0.00,,,0.00,meteobridge,2013-12-22 05:05:00,
2013-12-22 07:10:00,38.8,20.8,30.30,NE,45,0.0,0.0,48,0.00,,,0.00,meteobridge,2013-12-22 05:10:00,
2013-12-22 07:15:00,38.8,20.8,30.30,NE,45,0.0,0.9,48,0.00,,,0.00,meteobridge,2013-12-22 05:15:00,
2013-12-22 07:20:00,39.6,22.1,30.30,NE,45,1.3,2.2,49,0.00,,,0.00,meteobridge,2013-12-22 05:20:00,
2013-12-22 07:25:00,39.9,22.3,30.30,NE,45,0.0,0.0,49,0.00,,,0.00,meteobridge,2013-12-22 05:25:00,
2013-12-22 07:30:00,39.9,21.9,30.30,NE,45,0.0,0.0,48,0.00,,,0.00,meteobridge,2013-12-22 05:30:00,
2013-12-22 07:36:00,39.7,21.7,30.30,NE,45,0.0,0.0,48,0.00,,,0.00,meteobridge,2013-12-22 05:36:00,
2013-12-22 07:42:00,40.3,22.6,30.30,NE,45,0.0,0.0,49,0.00,,,0.00,meteobridge,2013-12-22 05:42:00,
2013-12-22 07:47:00,39.9,21.9,30.30,NE,45,1.6,1.6,48,0.00,,,0.00,meteobridge,2013-12-22 05:47:00,
2013-12-22 07:52:00,39.9,21.9,30.30,NE,45,0.0,0.9,48,0.00,,,0.00,meteobridge,2013-12-22 05:52:00,
2013-12-22 07:57:00,39.9,21.9,30.30,NE,45,0.0,0.0,48,0.00,,,0.00,meteobridge,2013-12-22 05:57:00,
2013-12-22 08:02:00,40.1,22.5,30.30,NE,45,0.0,0.0,49,0.00,,,0.00,meteobridge,2013-12-22 06:02:00,
2013-12-22 08:07:00,39.9,22.3,30.30,NE,45,0.0,0.0,49,0.00,,,0.00,meteobridge,2013-12-22 06:07:00,
2013-12-22 08:12:00,40.1,22.5,30.30,NE,45,0.9,1.6,49,0.00,,,0.00,meteobridge,2013-12-22 06:12:00,
2013-12-22 08:17:00,40.5,22.8,30.30,NE,45,0.0,0.0,49,0.00,,,0.00,meteobridge,2013-12-22 06:17:00,
2013-12-22 08:23:00,40.3,22.6,30.30,NE,45,0.0,0.0,49,0.00,,,0.00,meteobridge,2013-12-22 06:23:00,
2013-12-22 08:28:00,40.5,22.8,30.30,ENE,68,0.0,0.0,49,0.00,,,0.00,meteobridge,2013-12-22 06:28:00,
2013-12-22 08:33:00,42.1,24.8,30.30,ENE,68,0.0,0.0,50,0.00,,,0.00,meteobridge,2013-12-22 06:33:00,
2013-12-22 08:39:00,45.1,28.0,30.30,ENE,68,0.0,0.0,51,0.00,,,0.00,meteobridge,2013-12-22 06:39:00,
2013-12-22 08:44:00,47.7,30.9,30.30,East,90,0.0,0.0,52,0.00,,,0.00,meteobridge,2013-12-22 06:44:00,
2013-12-22 08:49:00,49.6,31.3,30.30,East,90,0.9,2.2,49,0.00,,,0.00,meteobridge,2013-12-22 06:49:00,
2013-12-22 08:54:00,50.7,29.1,30.27,ESE,112,1.6,2.5,43,0.00,,,0.00,meteobridge,2013-12-22 06:54:00,
2013-12-22 08:59:00,51.8,28.9,30.27,ESE,112,1.6,2.0,41,0.00,,,0.00,meteobridge,2013-12-22 06:59:00,
2013-12-22 09:00:00,52.0,28.4,30.27,ESE,112,1.1,2.2,40,0.00,,,0.00,meteobridge,2013-12-22 07:00:00,
2013-12-22 09:05:00,53.2,28.4,30.27,SE,135,1.6,2.2,38,0.00,,,0.00,meteobridge,2013-12-22 07:05:00,
2013-12-22 09:10:00,54.3,28.6,30.30,SE,135,1.1,1.3,37,0.00,,,0.00,meteobridge,2013-12-22 07:10:00,
2013-12-22 09:15:00,55.0,29.3,30.30,SE,135,1.1,1.6,37,0.00,,,0.00,meteobridge,2013-12-22 07:15:00,
2013-12-22 09:21:00,55.4,28.2,30.30,NNE,22,1.3,2.0,35,0.00,,,0.00,meteobridge,2013-12-22 07:21:00,
2013-12-22 09:26:00,55.4,28.2,30.30,NNE,22,0.0,0.0,35,0.00,,,0.00,meteobridge,2013-12-22 07:26:00,
2013-12-22 09:31:00,56.3,29.1,30.30,ESE,112,1.1,1.1,35,0.00,,,0.00,meteobridge,2013-12-22 07:31:00,
2013-12-22 09:36:00,57.2,29.1,30.30,SE,135,0.0,1.3,34,0.00,,,0.00,meteobridge,2013-12-22 07:36:00,
2013-12-22 09:41:00,58.1,27.7,30.30,SE,135,0.0,2.0,31,0.00,,,0.00,meteobridge,2013-12-22 07:41:00,
2013-12-22 09:46:00,59.0,27.7,30.30,SE,135,0.0,0.0,30,0.00,,,0.00,meteobridge,2013-12-22 07:46:00,
2013-12-22 09:51:00,59.4,26.2,30.30,SE,135,0.9,1.3,28,0.00,,,0.00,meteobridge,2013-12-22 07:51:00,
2013-12-22 09:56:00,59.9,25.9,30.30,SSE,158,1.6,2.2,27,0.00,,,0.00,meteobridge,2013-12-22 07:56:00,
2013-12-22 10:01:00,60.4,25.5,30.30,SSE,158,1.6,2.7,26,0.00,,,0.00,meteobridge,2013-12-22 08:01:00,
2013-12-22 10:06:00,60.8,24.8,30.30,SSE,158,0.0,2.0,25,0.00,,,0.00,meteobridge,2013-12-22 08:06:00,
2013-12-22 10:11:00,61.5,25.3,30.30,SSE,158,2.2,2.5,25,0.00,,,0.00,meteobridge,2013-12-22 08:11:00,
2013-12-22 10:16:00,61.7,25.5,30.30,SSE,158,1.3,1.6,25,0.00,,,0.00,meteobridge,2013-12-22 08:16:00,
2013-12-22 10:21:00,62.1,25.9,30.30,SE,135,0.0,0.0,25,0.00,,,0.00,meteobridge,2013-12-22 08:21:00,
2013-12-22 10:26:00,62.4,26.2,30.30,ESE,112,1.6,2.5,25,0.00,,,0.00,meteobridge,2013-12-22 08:26:00,
2013-12-22 10:32:00,61.9,24.8,30.30,North,0,2.2,3.4,24,0.00,,,0.00,meteobridge,2013-12-22 08:32:00,
2013-12-22 10:37:00,61.3,24.3,30.30,NE,45,0.9,3.1,24,0.00,,,0.00,meteobridge,2013-12-22 08:37:00,
2013-12-22 10:42:00,61.0,24.1,30.30,NE,45,2.7,3.1,24,0.00,,,0.00,meteobridge,2013-12-22 08:42:00,
2013-12-22 10:47:00,60.8,23.9,30.30,NNE,22,0.9,1.1,24,0.00,,,0.00,meteobridge,2013-12-22 08:47:00,
2013-12-22 10:52:00,61.2,24.1,30.30,East,90,2.9,2.9,24,0.00,,,0.00,meteobridge,2013-12-22 08:52:00,
2013-12-22 10:57:00,61.7,24.6,30.30,ESE,112,2.2,2.2,24,0.00,,,0.00,meteobridge,2013-12-22 08:57:00,
2013-12-22 11:02:00,61.7,24.6,30.30,East,90,1.1,1.1,24,0.00,,,0.00,meteobridge,2013-12-22 09:02:00,
2013-12-22 11:07:00,62.1,25.0,30.30,NNE,22,2.0,2.7,24,0.00,,,0.00,meteobridge,2013-12-22 09:07:00,
2013-12-22 11:12:00,62.1,25.0,30.30,NE,45,1.1,2.5,24,0.00,,,0.00,meteobridge,2013-12-22 09:12:00,
2013-12-22 11:18:00,62.6,24.3,30.30,NNE,22,0.9,1.6,23,0.00,,,0.00,meteobridge,2013-12-22 09:18:00,
2013-12-22 11:23:00,62.6,24.3,30.30,NNE,22,2.0,2.2,23,0.00,,,0.00,meteobridge,2013-12-22 09:23:00,
2013-12-22 11:28:00,62.8,22.3,30.30,NNW,338,1.3,1.3,21,0.00,,,0.00,meteobridge,2013-12-22 09:28:00,
2013-12-22 11:33:00,62.8,22.3,30.30,North,0,1.3,1.3,21,0.00,,,0.00,meteobridge,2013-12-22 09:33:00,
2013-12-22 11:38:00,63.0,22.5,30.30,SE,135,2.5,2.5,21,0.00,,,0.00,meteobridge,2013-12-22 09:38:00,
2013-12-22 11:43:00,62.8,22.3,30.30,NNW,338,1.1,1.6,21,0.00,,,0.00,meteobridge,2013-12-22 09:43:00,
2013-12-22 11:48:00,62.6,22.1,30.30,NNW,338,1.1,1.3,21,0.00,,,0.00,meteobridge,2013-12-22 09:48:00,
2013-12-22 11:53:00,62.6,22.1,30.30,North,0,1.6,3.1,21,0.00,,,0.00,meteobridge,2013-12-22 09:53:00,
2013-12-22 11:59:00,63.0,22.5,30.30,ENE,68,0.0,1.6,21,0.00,,,0.00,meteobridge,2013-12-22 09:59:00,
2013-12-22 12:04:00,62.6,22.1,30.30,NW,315,1.6,3.4,21,0.00,,,0.00,meteobridge,2013-12-22 10:04:00,
2013-12-22 12:09:00,62.6,22.1,30.27,NNE,22,1.1,2.5,21,0.00,,,0.00,meteobridge,2013-12-22 10:09:00,
2013-12-22 12:14:00,62.4,22.1,30.27,NE,45,1.1,1.6,21,0.00,,,0.00,meteobridge,2013-12-22 10:14:00,
2013-12-22 12:19:00,63.1,22.6,30.27,North,0,1.3,2.2,21,0.00,,,0.00,meteobridge,2013-12-22 10:19:00,
2013-12-22 12:24:00,63.1,22.6,30.24,East,90,0.0,1.6,21,0.00,,,0.00,meteobridge,2013-12-22 10:24:00,
2013-12-22 12:30:00,63.7,23.0,30.24,South,180,0.9,2.2,21,0.00,,,0.00,meteobridge,2013-12-22 10:30:00,
2013-12-22 12:35:00,64.2,23.5,30.24,SW,225,1.3,1.3,21,0.00,,,0.00,meteobridge,2013-12-22 10:35:00,
2013-12-22 12:40:00,64.0,23.4,30.24,NNW,338,0.9,1.6,21,0.00,,,0.00,meteobridge,2013-12-22 10:40:00,
2013-12-22 12:45:00,63.3,19.2,30.24,NNW,338,2.7,3.1,18,0.00,,,0.00,meteobridge,2013-12-22 10:45:00,
2013-12-22 12:50:00,64.0,19.8,30.24,SE,135,0.9,2.7,18,0.00,,,0.00,meteobridge,2013-12-22 10:50:00,
2013-12-22 12:55:00,64.6,20.1,30.24,SSE,158,2.0,2.0,18,0.00,,,0.00,meteobridge,2013-12-22 10:55:00,
2013-12-22 13:00:00,64.4,20.1,30.24,SSW,202,0.0,1.6,18,0.00,,,0.00,meteobridge,2013-12-22 11:00:00,
2013-12-22 13:05:00,64.2,19.9,30.24,North,0,1.6,3.1,18,0.00,,,0.00,meteobridge,2013-12-22 11:05:00,
2013-12-22 13:11:00,63.7,19.4,30.24,NNW,338,0.9,2.2,18,0.00,,,0.00,meteobridge,2013-12-22 11:11:00,
2013-12-22 13:16:00,64.0,19.8,30.24,NNW,338,0.0,2.0,18,0.00,,,0.00,meteobridge,2013-12-22 11:16:00,
2013-12-22 13:21:00,64.4,20.1,30.27,WSW,248,0.0,1.1,18,0.00,,,0.00,meteobridge,2013-12-22 11:21:00,
2013-12-22 13:26:00,64.4,20.1,30.27,SSE,158,0.0,1.1,18,0.00,,,0.00,meteobridge,2013-12-22 11:26:00,
2013-12-22 13:31:00,64.9,20.5,30.27,SSE,158,2.0,2.0,18,0.00,,,0.00,meteobridge,2013-12-22 11:31:00,
2013-12-22 13:37:00,65.3,20.8,30.24,NNE,22,2.9,2.9,18,0.00,,,0.00,meteobridge,2013-12-22 11:37:00,
2013-12-22 13:42:00,65.1,20.7,30.24,NNW,338,1.6,2.0,18,0.00,,,0.00,meteobridge,2013-12-22 11:42:00,
2013-12-22 13:47:00,64.4,20.1,30.24,East,90,3.1,3.8,18,0.00,,,0.00,meteobridge,2013-12-22 11:47:00,
2013-12-22 13:52:00,63.9,19.6,30.24,ENE,68,4.9,4.9,18,0.00,,,0.00,meteobridge,2013-12-22 11:52:00,
2013-12-22 13:57:00,63.7,16.7,30.24,NNE,22,2.5,5.8,16,0.00,,,0.00,meteobridge,2013-12-22 11:57:00,
2013-12-22 14:02:00,63.3,16.5,30.24,East,90,3.1,5.6,16,0.00,,,0.00,meteobridge,2013-12-22 12:02:00,
2013-12-22 14:07:00,63.3,16.5,30.24,NE,45,3.1,5.6,16,0.00,,,0.00,meteobridge,2013-12-22 12:07:00,
2013-12-22 14:12:00,62.8,16.0,30.24,North,0,2.0,6.0,16,0.00,,,0.00,meteobridge,2013-12-22 12:12:00,
2013-12-22 14:17:00,62.4,15.8,30.24,NNW,338,5.8,7.2,16,0.00,,,0.00,meteobridge,2013-12-22 12:17:00,
2013-12-22 14:22:00,62.1,15.4,30.24,NE,45,4.0,7.4,16,0.00,,,0.00,meteobridge,2013-12-22 12:22:00,
2013-12-22 14:27:00,61.2,14.7,30.24,ENE,68,7.4,7.4,16,0.00,,,0.00,meteobridge,2013-12-22 12:27:00,
2013-12-22 14:32:00,60.4,15.4,30.24,NNE,22,5.6,6.5,17,0.00,,,0.00,meteobridge,2013-12-22 12:32:00,
2013-12-22 14:37:00,60.3,15.4,30.21,North,0,4.3,6.3,17,0.00,,,0.00,meteobridge,2013-12-22 12:37:00,
2013-12-22 14:42:00,59.9,17.6,30.21,NNW,338,2.5,5.6,19,0.00,,,0.00,meteobridge,2013-12-22 12:42:00,
2013-12-22 14:48:00,59.7,17.4,30.21,East,90,2.5,5.4,19,0.00,,,0.00,meteobridge,2013-12-22 12:48:00,
2013-12-22 14:53:00,59.5,17.2,30.24,North,0,4.0,4.0,19,0.00,,,0.00,meteobridge,2013-12-22 12:53:00,
2013-12-22 14:58:00,59.4,17.2,30.24,South,180,4.9,4.9,19,0.00,,,0.00,meteobridge,2013-12-22 12:58:00,
2013-12-22 15:03:00,59.2,17.1,30.24,NNE,22,2.7,4.0,19,0.00,,,0.00,meteobridge,2013-12-22 13:03:00,
2013-12-22 15:08:00,59.2,17.1,30.21,NNE,22,3.4,4.3,19,0.00,,,0.00,meteobridge,2013-12-22 13:08:00,
2013-12-22 15:14:00,59.0,16.9,30.21,NNE,22,4.7,6.3,19,0.00,,,0.00,meteobridge,2013-12-22 13:14:00,
2013-12-22 15:19:00,58.8,16.7,30.21,NNE,22,3.6,8.1,19,0.00,,,0.00,meteobridge,2013-12-22 13:19:00,
2013-12-22 15:24:00,58.8,16.7,30.21,North,0,7.6,7.6,19,0.00,,,0.00,meteobridge,2013-12-22 13:24:00,
2013-12-22 15:29:00,58.6,16.5,30.21,NE,45,3.8,5.6,19,0.00,,,0.00,meteobridge,2013-12-22 13:29:00,
2013-12-22 15:34:00,58.5,16.3,30.21,North,0,6.7,6.7,19,0.00,,,0.00,meteobridge,2013-12-22 13:34:00,
2013-12-22 15:39:00,58.5,16.3,30.21,ENE,68,3.4,5.4,19,0.00,,,0.00,meteobridge,2013-12-22 13:39:00,
2013-12-22 15:44:00,58.3,16.3,30.21,NNE,22,3.4,7.4,19,0.00,,,0.00,meteobridge,2013-12-22 13:44:00,
2013-12-22 15:50:00,58.1,19.6,30.21,NE,45,4.3,7.4,22,0.00,,,0.00,meteobridge,2013-12-22 13:50:00,
2013-12-22 15:55:00,57.9,19.4,30.21,North,0,4.7,4.7,22,0.00,,,0.00,meteobridge,2013-12-22 13:55:00,
2013-12-22 16:00:00,57.7,19.2,30.21,ENE,68,3.4,3.6,22,0.00,,,0.00,meteobridge,2013-12-22 14:00:00,
2013-12-22 16:05:00,57.6,21.0,30.21,North,0,2.7,5.6,24,0.00,,,0.00,meteobridge,2013-12-22 14:05:00,
2013-12-22 16:10:00,57.4,21.9,30.21,NNE,22,2.9,4.9,25,0.00,,,0.00,meteobridge,2013-12-22 14:10:00,
2013-12-22 16:15:00,57.2,21.7,30.21,NNW,338,3.8,3.8,25,0.00,,,0.00,meteobridge,2013-12-22 14:15:00,
2013-12-22 16:21:00,57.0,22.5,30.21,NE,45,2.9,3.8,26,0.00,,,0.00,meteobridge,2013-12-22 14:21:00,
2013-12-22 16:26:00,56.8,22.5,30.21,ENE,68,2.5,5.8,26,0.00,,,0.00,meteobridge,2013-12-22 14:26:00,
2013-12-22 16:31:00,56.7,23.2,30.21,NNE,22,3.8,6.5,27,0.00,,,0.00,meteobridge,2013-12-22 14:31:00,
2013-12-22 16:37:00,56.3,22.8,30.21,North,0,3.4,3.6,27,0.00,,,0.00,meteobridge,2013-12-22 14:37:00,
2013-12-22 16:42:00,55.9,23.4,30.21,NNW,338,7.2,7.2,28,0.00,,,0.00,meteobridge,2013-12-22 14:42:00,
2013-12-22 16:47:00,55.8,24.1,30.21,NNE,22,4.0,5.6,29,0.00,,,0.00,meteobridge,2013-12-22 14:47:00,
2013-12-22 16:53:00,55.6,24.6,30.21,North,0,5.4,8.1,30,0.00,,,0.00,meteobridge,2013-12-22 14:53:00,
2013-12-22 16:58:00,55.4,25.3,30.21,North,0,5.6,5.8,31,0.00,,,0.00,meteobridge,2013-12-22 14:58:00,
2013-12-22 17:03:00,55.0,25.7,30.21,NNE,22,6.0,6.0,32,0.00,,,0.00,meteobridge,2013-12-22 15:03:00,
2013-12-22 17:08:00,54.9,27.1,30.21,NNE,22,4.0,6.3,34,0.00,,,0.00,meteobridge,2013-12-22 15:08:00,
2013-12-22 17:13:00,54.7,27.7,30.21,North,0,5.8,6.9,35,0.00,,,0.00,meteobridge,2013-12-22 15:13:00,
2013-12-22 17:18:00,54.5,27.5,30.21,NE,45,4.5,6.5,35,0.00,,,0.00,meteobridge,2013-12-22 15:18:00,
2013-12-22 17:23:00,54.1,27.1,30.21,North,0,3.1,4.3,35,0.00,,,0.00,meteobridge,2013-12-22 15:23:00,
2013-12-22 17:28:00,54.0,27.7,30.21,NNE,22,5.6,6.0,36,0.00,,,0.00,meteobridge,2013-12-22 15:28:00,
2013-12-22 17:33:00,53.8,27.5,30.21,North,0,6.0,7.6,36,0.00,,,0.00,meteobridge,2013-12-22 15:33:00,
2013-12-22 17:38:00,53.8,27.5,30.21,NNE,22,3.4,7.4,36,0.00,,,0.00,meteobridge,2013-12-22 15:38:00,
2013-12-22 17:44:00,53.6,27.3,30.21,NE,45,2.2,3.6,36,0.00,,,0.00,meteobridge,2013-12-22 15:44:00,
2013-12-22 17:49:00,53.2,27.0,30.21,NNE,22,2.9,4.7,36,0.00,,,0.00,meteobridge,2013-12-22 15:49:00,
2013-12-22 17:54:00,53.1,27.5,30.21,East,90,3.4,6.3,37,0.00,,,0.00,meteobridge,2013-12-22 15:54:00,
2013-12-22 17:59:00,53.1,27.5,30.21,NNE,22,3.1,6.0,37,0.00,,,0.00,meteobridge,2013-12-22 15:59:00,
2013-12-22 18:04:00,53.1,27.5,30.21,NNE,22,1.6,3.4,37,0.00,,,0.00,meteobridge,2013-12-22 16:04:00,
2013-12-22 18:09:00,52.5,27.0,30.21,North,0,3.4,3.8,37,0.00,,,0.00,meteobridge,2013-12-22 16:09:00,
2013-12-22 18:14:00,52.5,27.0,30.21,NNE,22,2.0,4.3,37,0.00,,,0.00,meteobridge,2013-12-22 16:14:00,
2013-12-22 18:19:00,52.5,27.7,30.21,NE,45,2.7,5.8,38,0.00,,,0.00,meteobridge,2013-12-22 16:19:00,
2013-12-22 18:24:00,52.3,27.5,30.21,ENE,68,2.2,4.3,38,0.00,,,0.00,meteobridge,2013-12-22 16:24:00,
2013-12-22 18:29:00,52.3,27.5,30.21,North,0,2.7,6.3,38,0.00,,,0.00,meteobridge,2013-12-22 16:29:00,
2013-12-22 18:34:00,51.8,27.0,30.21,NNE,22,2.0,2.7,38,0.00,,,0.00,meteobridge,2013-12-22 16:34:00,
2013-12-22 18:40:00,51.4,26.8,30.21,NNE,22,1.6,3.1,38,0.00,,,0.00,meteobridge,2013-12-22 16:40:00,
2013-12-22 18:45:00,51.1,26.4,30.21,ENE,68,2.0,2.0,38,0.00,,,0.00,meteobridge,2013-12-22 16:45:00,
2013-12-22 18:50:00,50.9,26.2,30.21,ENE,68,0.0,1.6,38,0.00,,,0.00,meteobridge,2013-12-22 16:50:00,
2013-12-22 18:55:00,50.7,26.1,30.21,ENE,68,1.3,1.3,38,0.00,,,0.00,meteobridge,2013-12-22 16:55:00,
2013-12-22 19:00:00,50.2,25.5,30.21,East,90,0.0,2.5,38,0.00,,,0.00,meteobridge,2013-12-22 17:00:00,
2013-12-22 19:05:00,50.0,25.5,30.21,East,90,0.0,0.0,38,0.00,,,0.00,meteobridge,2013-12-22 17:05:00,
2013-12-22 19:10:00,49.6,25.2,30.21,East,90,0.9,1.6,38,0.00,,,0.00,meteobridge,2013-12-22 17:10:00,
2013-12-22 19:16:00,49.5,25.5,30.21,East,90,0.0,0.0,39,0.00,,,0.00,meteobridge,2013-12-22 17:16:00,
2013-12-22 19:21:00,49.1,25.3,30.21,East,90,0.0,0.0,39,0.00,,,0.00,meteobridge,2013-12-22 17:21:00,
2013-12-22 19:26:00,48.7,25.0,30.21,East,90,0.0,1.3,39,0.00,,,0.00,meteobridge,2013-12-22 17:26:00,
2013-12-22 19:31:00,48.6,24.8,30.21,East,90,0.0,0.0,39,0.00,,,0.00,meteobridge,2013-12-22 17:31:00,
2013-12-22 19:36:00,48.2,24.4,30.24,East,90,0.0,0.0,39,0.00,,,0.00,meteobridge,2013-12-22 17:36:00,
2013-12-22 19:41:00,48.0,25.0,30.24,East,90,0.0,0.0,40,0.00,,,0.00,meteobridge,2013-12-22 17:41:00,
2013-12-22 19:46:00,47.7,24.6,30.24,East,90,1.3,1.3,40,0.00,,,0.00,meteobridge,2013-12-22 17:46:00,
2013-12-22 19:51:00,47.5,24.4,30.24,East,90,0.0,0.0,40,0.00,,,0.00,meteobridge,2013-12-22 17:51:00,
2013-12-22 19:56:00,47.3,24.3,30.24,East,90,0.0,0.9,40,0.00,,,0.00,meteobridge,2013-12-22 17:56:00,
2013-12-22 20:01:00,46.9,23.9,30.24,East,90,0.0,0.0,40,0.00,,,0.00,meteobridge,2013-12-22 18:01:00,
2013-12-22 20:07:00,46.8,23.7,30.21,East,90,0.0,0.0,40,0.00,,,0.00,meteobridge,2013-12-22 18:07:00,
2013-12-22 20:12:00,46.8,23.7,30.21,East,90,0.0,0.0,40,0.00,,,0.00,meteobridge,2013-12-22 18:12:00,
2013-12-22 20:17:00,46.6,23.5,30.21,East,90,0.0,0.0,40,0.00,,,0.00,meteobridge,2013-12-22 18:17:00,
2013-12-22 20:22:00,46.4,23.4,30.24,East,90,0.0,0.0,40,0.00,,,0.00,meteobridge,2013-12-22 18:22:00,
2013-12-22 20:27:00,46.2,23.9,30.24,East,90,0.0,0.0,41,0.00,,,0.00,meteobridge,2013-12-22 18:27:00,
2013-12-22 20:32:00,46.0,23.7,30.24,East,90,0.0,0.0,41,0.00,,,0.00,meteobridge,2013-12-22 18:32:00,
2013-12-22 20:37:00,46.0,23.7,30.24,East,90,0.0,1.3,41,0.00,,,0.00,meteobridge,2013-12-22 18:37:00,
2013-12-22 20:42:00,46.0,23.7,30.24,East,90,0.0,0.0,41,0.00,,,0.00,meteobridge,2013-12-22 18:42:00,
2013-12-22 20:47:00,45.9,23.5,30.24,East,90,0.0,0.0,41,0.00,,,0.00,meteobridge,2013-12-22 18:47:00,
2013-12-22 20:52:00,45.9,24.1,30.24,East,90,0.0,0.0,42,0.00,,,0.00,meteobridge,2013-12-22 18:52:00,
2013-12-22 20:57:00,45.9,24.1,30.24,East,90,0.0,0.0,42,0.00,,,0.00,meteobridge,2013-12-22 18:57:00,
2013-12-22 21:03:00,45.5,23.7,30.24,East,90,0.0,0.0,42,0.00,,,0.00,meteobridge,2013-12-22 19:03:00,
2013-12-22 21:08:00,45.5,23.7,30.24,East,90,0.0,0.0,42,0.00,,,0.00,meteobridge,2013-12-22 19:08:00,
2013-12-22 21:13:00,45.7,23.9,30.24,East,90,0.0,0.9,42,0.00,,,0.00,meteobridge,2013-12-22 19:13:00,
2013-12-22 21:18:00,45.5,23.7,30.24,East,90,0.0,0.0,42,0.00,,,0.00,meteobridge,2013-12-22 19:18:00,
2013-12-22 21:23:00,45.3,23.5,30.24,East,90,0.0,0.0,42,0.00,,,0.00,meteobridge,2013-12-22 19:23:00,
2013-12-22 21:28:00,45.3,24.3,30.24,East,90,0.0,0.0,43,0.00,,,0.00,meteobridge,2013-12-22 19:28:00,
2013-12-22 21:33:00,45.1,24.1,30.24,East,90,1.6,1.6,43,0.00,,,0.00,meteobridge,2013-12-22 19:33:00,
2013-12-22 21:38:00,45.0,23.9,30.21,East,90,0.0,0.0,43,0.00,,,0.00,meteobridge,2013-12-22 19:38:00,
2013-12-22 21:44:00,45.0,23.9,30.21,East,90,0.0,0.0,43,0.00,,,0.00,meteobridge,2013-12-22 19:44:00,
2013-12-22 21:49:00,44.8,24.3,30.21,East,90,0.0,0.0,44,0.00,,,0.00,meteobridge,2013-12-22 19:49:00,
2013-12-22 21:54:00,44.6,24.1,30.24,East,90,0.0,0.0,44,0.00,,,0.00,meteobridge,2013-12-22 19:54:00,
2013-12-22 21:59:00,44.6,24.1,30.24,East,90,0.0,0.0,44,0.00,,,0.00,meteobridge,2013-12-22 19:59:00,
2013-12-22 22:04:00,44.6,24.1,30.24,East,90,0.0,0.0,44,0.00,,,0.00,meteobridge,2013-12-22 20:04:00,
2013-12-22 22:09:00,44.6,24.1,30.24,East,90,0.0,0.0,44,0.00,,,0.00,meteobridge,2013-12-22 20:09:00,
2013-12-22 22:14:00,44.4,24.4,30.24,East,90,0.0,0.0,45,0.00,,,0.00,meteobridge,2013-12-22 20:14:00,
2013-12-22 22:19:00,44.2,24.3,30.24,East,90,2.2,2.2,45,0.00,,,0.00,meteobridge,2013-12-22 20:19:00,
2013-12-22 22:24:00,44.4,24.4,30.21,East,90,0.0,0.0,45,0.00,,,0.00,meteobridge,2013-12-22 20:24:00,
2013-12-22 22:29:00,44.6,24.6,30.21,East,90,0.9,0.9,45,0.00,,,0.00,meteobridge,2013-12-22 20:29:00,
2013-12-22 22:34:00,44.6,24.6,30.21,East,90,0.0,0.0,45,0.00,,,0.00,meteobridge,2013-12-22 20:34:00,
2013-12-22 22:39:00,44.2,24.3,30.21,East,90,0.0,0.0,45,0.00,,,0.00,meteobridge,2013-12-22 20:39:00,
2013-12-22 22:44:00,44.2,24.8,30.21,East,90,0.0,1.1,46,0.00,,,0.00,meteobridge,2013-12-22 20:44:00,
2013-12-22 22:49:00,44.1,24.6,30.21,East,90,0.0,0.0,46,0.00,,,0.00,meteobridge,2013-12-22 20:49:00,
2013-12-22 22:54:00,43.9,24.4,30.21,East,90,1.3,1.6,46,0.00,,,0.00,meteobridge,2013-12-22 20:54:00,
2013-12-22 22:59:00,43.7,24.3,30.21,East,90,0.0,0.0,46,0.00,,,0.00,meteobridge,2013-12-22 20:59:00,
2013-12-22 23:04:00,43.7,24.3,30.21,East,90,0.9,1.3,46,0.00,,,0.00,meteobridge,2013-12-22 21:04:00,
2013-12-22 23:10:00,43.7,24.3,30.21,East,90,0.0,1.3,46,0.00,,,0.00,meteobridge,2013-12-22 21:10:00,
2013-12-22 23:15:00,43.7,24.3,30.21,East,90,0.9,0.9,46,0.00,,,0.00,meteobridge,2013-12-22 21:15:00,
2013-12-22 23:20:00,43.7,24.8,30.21,East,90,0.0,0.0,47,0.00,,,0.00,meteobridge,2013-12-22 21:20:00,
2013-12-22 23:26:00,43.7,24.8,30.21,East,90,0.0,0.0,47,0.00,,,0.00,meteobridge,2013-12-22 21:26:00,
2013-12-22 23:31:00,43.5,24.6,30.21,East,90,0.0,0.0,47,0.00,,,0.00,meteobridge,2013-12-22 21:31:00,
2013-12-22 23:33:00,43.5,24.1,30.21,East,90,1.1,1.3,46,0.00,,,0.00,meteobridge,2013-12-22 21:33:00,
2013-12-22 23:38:00,43.5,24.6,30.21,East,90,0.0,2.0,47,0.00,,,0.00,meteobridge,2013-12-22 21:38:00,
2013-12-22 23:43:00,43.5,24.6,30.21,East,90,0.0,0.0,47,0.00,,,0.00,meteobridge,2013-12-22 21:43:00,
2013-12-22 23:48:00,43.5,25.2,30.21,East,90,0.0,1.1,48,0.00,,,0.00,meteobridge,2013-12-22 21:48:00,
2013-12-22 23:53:00,43.7,25.3,30.21,East,90,1.3,1.3,48,0.00,,,0.00,meteobridge,2013-12-22 21:53:00,
2013-12-22 23:59:00,43.5,25.2,30.21,East,90,0.0,0.0,48,0.00,,,0.00,meteobridge,2013-12-22 21:59:00,